Delta Virtual Airport Information Service

Manaus Eduardo Gomes International Airport

ICAO: SBEG Country: Brazil
Latitude: -3.03861 Longitude: -60.0497
Latest Arrival : AZA2829 (3) (SBPV-SBEG) Latest Departure : AZA4228 (1A) (SBEG-SBBE)


WX CaptureLIVE
Data provided by noaa.gov | Fetched at 01:57:51

METAR : SBEG 300600Z 15001KT 9999 SCT040 25/23 Q1005

TAF : SBEG 300600Z 15001KT 9999 SCT040 25/23 Q1005


Runway Data for SBEG
Data provided by openaviationdata.com

Runway ID Mag Var Hdg Length Elevation Surface ILS Freq ILS Id ILS Slope
10 -13 103° 8854 ft 230 ft Asphalt 110.3 IEG 3
28 -13 283° 8854 ft 230 ft Asphalt -- -- --

Manaus Eduardo Gomes International Airport, Brazil
Use only for reference purposes



Not for navigational purposes.